Time;durP1;ratioP1;P1;durP2;ratioP2;P2;SDS_P1;SDS_P2;PMS_P1;PMS_P2;Temp;Humidity;BMP_temperature;BMP_pressure;BME280_temperature;BME280_humidity;BME280_pressure;Samples;Min_cycle;Max_cycle;Signal;HPM_P1;HPM_P2
2022/04/05 00:25:09;;;;;;;1.60;1.50;;;;;;;;;;5032395;28;1205421;-54
2022/04/05 00:27:36;;;;;;;1.60;1.50;;;;;;;;;;5076753;28;20223;-54
2022/04/05 00:30:04;;;;;;;1.70;1.60;;;;;;;;;;5076652;28;20204;-54
2022/04/05 00:32:31;;;;;;;1.55;1.33;;;;;;;;;;5076336;28;20212;-56
2022/04/05 00:34:59;;;;;;;1.40;1.30;;;;;;;;;;5065983;28;20201;-55
2022/04/05 00:37:26;;;;;;;1.60;1.50;;;;;;;;;;5055833;28;20236;-54
2022/04/05 00:39:54;;;;;;;2.72;1.33;;;;;;;;;;5057458;28;20207;-55
2022/04/05 00:42:23;;;;;;;1.38;1.27;;;;;;;;;;5076184;28;20204;-55
2022/04/05 00:44:50;;;;;;;1.40;1.30;;;;;;;;;;5072347;28;20470;-55
2022/04/05 00:47:18;;;;;;;1.92;1.40;;;;;;;;;;5060214;28;20227;-55
2022/04/05 00:49:46;;;;;;;1.50;1.27;;;;;;;;;;5056185;28;20204;-55
2022/04/05 00:52:15;;;;;;;1.50;1.30;;;;;;;;;;5056522;28;20288;-54
2022/04/05 00:54:43;;;;;;;1.50;1.30;;;;;;;;;;5056778;28;20240;-55
2022/04/05 00:57:12;;;;;;;1.80;1.70;;;;;;;;;;5066322;28;20525;-55
2022/04/05 00:59:45;;;;;;;1.35;1.25;;;;;;;;;;5072392;28;20197;-55
2022/04/05 01:02:14;;;;;;;1.25;1.23;;;;;;;;;;5055745;28;20707;-55
2022/04/05 01:04:43;;;;;;;1.27;1.20;;;;;;;;;;5062432;28;20291;-55
2022/04/05 01:07:11;;;;;;;1.40;1.30;;;;;;;;;;5075864;28;20204;-55
2022/04/05 01:09:39;;;;;;;1.40;1.30;;;;;;;;;;5075928;28;20200;-54
2022/04/05 01:12:07;;;;;;;1.38;1.27;;;;;;;;;;5076627;28;20212;-55
2022/04/05 01:14:34;;;;;;;1.40;1.30;;;;;;;;;;5070536;28;20201;-55
2022/04/05 01:17:04;;;;;;;1.50;1.40;;;;;;;;;;5055955;28;20240;-55
2022/04/05 01:19:32;;;;;;;1.50;1.40;;;;;;;;;;5064360;28;20255;-55
2022/04/05 01:22:00;;;;;;;1.70;1.60;;;;;;;;;;5076227;28;20465;-55
2022/04/05 01:24:29;;;;;;;1.50;1.40;;;;;;;;;;5074950;28;20232;-55
2022/04/05 01:26:57;;;;;;;1.30;1.20;;;;;;;;;;5076686;28;20219;-54
2022/04/05 01:29:25;;;;;;;1.30;1.20;;;;;;;;;;5076061;28;20193;-55
2022/04/05 01:31:54;;;;;;;1.30;1.20;;;;;;;;;;5063240;28;20299;-55
2022/04/05 01:34:23;;;;;;;1.00;1.00;;;;;;;;;;5064464;28;20299;-55
2022/04/05 01:36:51;;;;;;;1.48;1.38;;;;;;;;;;5080047;28;20493;-54
2022/04/05 01:39:19;;;;;;;1.00;1.00;;;;;;;;;;5079027;28;20215;-54
2022/04/05 01:41:52;;;;;;;1.25;1.15;;;;;;;;;;5062725;28;20201;-55
2022/04/05 01:44:19;;;;;;;1.40;1.30;;;;;;;;;;5063265;28;20200;-54
2022/04/05 01:46:47;;;;;;;1.25;1.15;;;;;;;;;;5073331;28;20204;-55
2022/04/05 01:49:14;;;;;;;1.20;1.00;;;;;;;;;;5060992;28;20213;-55
2022/04/05 01:51:43;;;;;;;1.10;1.00;;;;;;;;;;5080128;28;20205;-54
2022/04/05 01:54:11;;;;;;;1.30;1.20;;;;;;;;;;5078497;28;20568;-55
2022/04/05 01:56:42;;;;;;;1.08;0.98;;;;;;;;;;5065423;28;20238;-55
2022/04/05 01:59:11;;;;;;;1.10;1.10;;;;;;;;;;5065809;28;20207;-54
2022/04/05 02:01:38;;;;;;;1.13;1.10;;;;;;;;;;5060786;28;20209;-55
2022/04/05 02:04:06;;;;;;;1.08;1.00;;;;;;;;;;5079676;28;20209;-55
2022/04/05 02:06:34;;;;;;;1.15;1.15;;;;;;;;;;5080227;28;20463;-55
2022/04/05 02:09:01;;;;;;;1.20;1.10;;;;;;;;;;5079910;28;20204;-55
2022/04/05 02:11:29;;;;;;;0.90;0.90;;;;;;;;;;5079745;28;20204;-54
2022/04/05 02:13:56;;;;;;;1.02;1.00;;;;;;;;;;5078063;28;20205;-54
2022/04/05 02:16:26;;;;;;;1.00;1.00;;;;;;;;;;5059581;28;20229;-55
2022/04/05 02:18:53;;;;;;;1.10;1.00;;;;;;;;;;5059558;28;20211;-54
2022/04/05 02:21:23;;;;;;;1.10;1.00;;;;;;;;;;5059866;28;20205;-54
2022/04/05 02:23:50;;;;;;;1.02;1.00;;;;;;;;;;5058940;28;20224;-55
2022/04/05 02:26:18;;;;;;;0.95;0.95;;;;;;;;;;5058929;28;20201;-54
2022/04/05 02:28:47;;;;;;;0.90;0.90;;;;;;;;;;5059596;28;20209;-55
2022/04/05 02:31:14;;;;;;;1.00;1.00;;;;;;;;;;5058766;28;20256;-56
2022/04/05 02:33:43;;;;;;;0.90;0.90;;;;;;;;;;5062764;28;20196;-55
2022/04/05 02:36:10;;;;;;;0.80;0.80;;;;;;;;;;5061027;28;20221;-55
2022/04/05 02:38:38;;;;;;;1.00;1.00;;;;;;;;;;5060808;28;20220;-55
2022/04/05 02:41:06;;;;;;;0.95;0.95;;;;;;;;;;5072068;28;20207;-55
2022/04/05 02:43:34;;;;;;;1.00;1.00;;;;;;;;;;5058252;28;20212;-54
2022/04/05 02:46:02;;;;;;;0.90;0.90;;;;;;;;;;5068541;28;20220;-54
2022/04/05 02:48:30;;;;;;;0.90;0.90;;;;;;;;;;5058472;28;20268;-54
2022/04/05 02:50:59;;;;;;;1.00;0.90;;;;;;;;;;5058237;28;20201;-54
2022/04/05 02:53:27;;;;;;;0.90;0.90;;;;;;;;;;5058190;28;20656;-54
2022/04/05 02:55:54;;;;;;;1.10;1.00;;;;;;;;;;5059710;28;20208;-54
2022/04/05 02:58:21;;;;;;;0.90;0.90;;;;;;;;;;5057806;28;20213;-54
2022/04/05 03:00:49;;;;;;;1.00;0.90;;;;;;;;;;5072245;28;20200;-54
2022/04/05 03:03:16;;;;;;;0.70;0.70;;;;;;;;;;5077453;28;20581;-54
2022/04/05 03:05:44;;;;;;;0.70;0.70;;;;;;;;;;5064958;28;20219;-55
2022/04/05 03:08:13;;;;;;;0.80;0.80;;;;;;;;;;5074750;28;20189;-55
2022/04/05 03:10:41;;;;;;;1.55;0.98;;;;;;;;;;5076079;28;20262;-54
2022/04/05 03:13:08;;;;;;;0.80;0.80;;;;;;;;;;5060730;28;20223;-54
2022/04/05 03:15:35;;;;;;;0.98;0.82;;;;;;;;;;5068425;28;20437;-54
2022/04/05 03:18:03;;;;;;;0.90;0.90;;;;;;;;;;5076815;28;20226;-54
2022/04/05 03:20:32;;;;;;;0.80;0.80;;;;;;;;;;5076578;28;20204;-54
2022/04/05 03:23:00;;;;;;;0.70;0.70;;;;;;;;;;5077708;28;20571;-54
2022/04/05 03:25:29;;;;;;;0.90;0.90;;;;;;;;;;5067017;28;20232;-54
2022/04/05 03:27:57;;;;;;;0.70;0.70;;;;;;;;;;5061429;28;20193;-54
2022/04/05 03:30:24;;;;;;;0.70;0.70;;;;;;;;;;5077415;28;20439;-55
2022/04/05 03:32:52;;;;;;;0.80;0.80;;;;;;;;;;5076901;28;20200;-54
2022/04/05 03:35:20;;;;;;;0.82;0.77;;;;;;;;;;5067983;28;20201;-54
2022/04/05 03:37:47;;;;;;;0.70;0.70;;;;;;;;;;5064991;28;20232;-54
2022/04/05 03:40:14;;;;;;;0.80;0.70;;;;;;;;;;5075668;28;20201;-55
2022/04/05 03:42:43;;;;;;;0.60;0.60;;;;;;;;;;5057194;28;20204;-54
2022/04/05 03:45:11;;;;;;;0.60;0.60;;;;;;;;;;5063624;28;20207;-54
2022/04/05 03:47:38;;;;;;;0.70;0.70;;;;;;;;;;5074899;28;20212;-54
2022/04/05 03:50:06;;;;;;;0.70;0.70;;;;;;;;;;5076490;28;20222;-54
2022/04/05 03:52:34;;;;;;;0.85;0.75;;;;;;;;;;5076714;28;20204;-54
2022/04/05 03:55:01;;;;;;;0.50;0.50;;;;;;;;;;5070174;28;20207;-54
2022/04/05 03:57:29;;;;;;;0.70;0.70;;;;;;;;;;5056311;28;20247;-54
2022/04/05 03:59:58;;;;;;;0.60;0.60;;;;;;;;;;5062678;28;20193;-54
2022/04/05 04:02:25;;;;;;;0.82;0.80;;;;;;;;;;5061546;28;20212;-54
2022/04/05 04:04:53;;;;;;;0.40;0.40;;;;;;;;;;5058052;28;20584;-54
2022/04/05 04:07:20;;;;;;;0.63;0.63;;;;;;;;;;5076291;28;20200;-55
2022/04/05 04:09:47;;;;;;;0.50;0.50;;;;;;;;;;5076440;28;20617;-54
2022/04/05 04:12:15;;;;;;;0.50;0.50;;;;;;;;;;5076519;28;20214;-54
2022/04/05 04:14:42;;;;;;;0.70;0.70;;;;;;;;;;5076545;28;20210;-54
2022/04/05 04:17:11;;;;;;;0.43;0.43;;;;;;;;;;5072987;28;20235;-54
2022/04/05 04:19:38;;;;;;;0.70;0.70;;;;;;;;;;5055719;28;20208;-54
2022/04/05 04:22:06;;;;;;;0.60;0.60;;;;;;;;;;5055703;28;20229;-54
2022/04/05 04:24:33;;;;;;;0.60;0.57;;;;;;;;;;5055657;28;20360;-54
2022/04/05 04:27:00;;;;;;;0.60;0.60;;;;;;;;;;5055846;28;20220;-54
2022/04/05 04:29:28;;;;;;;0.60;0.60;;;;;;;;;;5055367;28;20512;-54
2022/04/05 04:31:56;;;;;;;0.50;0.50;;;;;;;;;;5055344;28;20231;-54
2022/04/05 04:34:24;;;;;;;0.55;0.50;;;;;;;;;;5054641;28;20212;-54
2022/04/05 04:36:52;;;;;;;0.52;0.52;;;;;;;;;;5054365;28;20220;-55
2022/04/05 04:39:19;;;;;;;0.45;0.45;;;;;;;;;;5058242;28;20205;-54
2022/04/05 04:41:47;;;;;;;0.47;0.47;;;;;;;;;;5055903;28;20204;-55
2022/04/05 04:44:14;;;;;;;0.50;0.50;;;;;;;;;;5054485;28;20193;-54
2022/04/05 04:46:43;;;;;;;0.55;0.55;;;;;;;;;;5064691;28;20640;-54
2022/04/05 04:49:10;;;;;;;0.60;0.60;;;;;;;;;;5057994;28;20275;-54
2022/04/05 04:51:39;;;;;;;0.50;0.50;;;;;;;;;;5054502;28;20660;-54
2022/04/05 04:54:06;;;;;;;0.40;0.40;;;;;;;;;;5054591;28;20212;-54
2022/04/05 04:56:34;;;;;;;0.80;0.70;;;;;;;;;;5053491;28;20200;-54
2022/04/05 04:59:02;;;;;;;1.02;0.60;;;;;;;;;;5068615;28;20205;-55
2022/04/05 05:01:29;;;;;;;0.55;0.55;;;;;;;;;;5074021;28;20210;-55
2022/04/05 05:03:56;;;;;;;0.60;0.60;;;;;;;;;;5073020;28;20204;-54
2022/04/05 05:06:24;;;;;;;0.50;0.50;;;;;;;;;;5075375;28;20204;-55
2022/04/05 05:08:53;;;;;;;0.52;0.52;;;;;;;;;;5076141;28;20192;-54
2022/04/05 05:11:20;;;;;;;0.50;0.50;;;;;;;;;;5075725;28;20235;-54
2022/04/05 05:13:48;;;;;;;0.60;0.60;;;;;;;;;;5077246;28;20211;-54
2022/04/05 05:16:16;;;;;;;0.52;0.52;;;;;;;;;;5076790;28;20204;-55
2022/04/05 05:18:43;;;;;;;0.60;0.60;;;;;;;;;;5064258;28;20220;-54
2022/04/05 05:21:10;;;;;;;0.60;0.60;;;;;;;;;;5056470;28;20201;-54
2022/04/05 05:23:38;;;;;;;0.52;0.52;;;;;;;;;;5068288;28;20196;-55
2022/04/05 05:26:07;;;;;;;0.57;0.57;;;;;;;;;;5060850;28;20225;-55
2022/04/05 05:28:34;;;;;;;0.60;0.50;;;;;;;;;;5068239;28;20201;-54
2022/04/05 05:31:02;;;;;;;0.50;0.50;;;;;;;;;;5076725;28;20200;-55
2022/04/05 05:33:31;;;;;;;0.70;0.70;;;;;;;;;;5077602;28;20196;-54
2022/04/05 05:35:59;;;;;;;0.50;0.50;;;;;;;;;;5059144;28;20825;-55
2022/04/05 05:38:27;;;;;;;0.73;0.52;;;;;;;;;;5066948;28;20666;-55
2022/04/05 05:40:54;;;;;;;0.60;0.60;;;;;;;;;;5064009;28;20201;-54
2022/04/05 05:43:24;;;;;;;0.40;0.40;;;;;;;;;;5070725;28;20478;-54
2022/04/05 05:45:52;;;;;;;0.60;0.60;;;;;;;;;;5067299;28;20208;-54
2022/04/05 05:48:19;;;;;;;0.60;0.60;;;;;;;;;;5065569;28;20200;-55
2022/04/05 05:50:47;;;;;;;0.60;0.60;;;;;;;;;;5077408;28;20589;-54
2022/04/05 05:53:14;;;;;;;0.60;0.60;;;;;;;;;;5058637;28;20201;-55
2022/04/05 05:55:41;;;;;;;0.60;0.60;;;;;;;;;;5057399;28;20284;-54
2022/04/05 05:58:09;;;;;;;0.70;0.70;;;;;;;;;;5063729;28;20224;-55
2022/04/05 06:00:38;;;;;;;0.50;0.50;;;;;;;;;;5067221;28;20201;-54
2022/04/05 06:03:06;;;;;;;0.40;0.40;;;;;;;;;;5074778;28;20762;-54
2022/04/05 06:05:34;;;;;;;0.68;0.60;;;;;;;;;;5077218;28;20200;-55
2022/04/05 06:08:01;;;;;;;0.50;0.50;;;;;;;;;;5077384;28;20214;-55
2022/04/05 06:10:29;;;;;;;0.75;0.60;;;;;;;;;;5076914;28;20204;-54
2022/04/05 06:12:57;;;;;;;0.50;0.50;;;;;;;;;;5076887;28;20334;-54
2022/04/05 06:15:26;;;;;;;0.60;0.60;;;;;;;;;;5077458;28;20316;-54
2022/04/05 06:17:55;;;;;;;0.50;0.50;;;;;;;;;;5076373;28;20220;-55
2022/04/05 06:20:23;;;;;;;0.65;0.45;;;;;;;;;;5077762;28;20292;-54
2022/04/05 06:22:51;;;;;;;0.60;0.60;;;;;;;;;;5078138;28;20205;-54
2022/04/05 06:25:19;;;;;;;0.40;0.40;;;;;;;;;;5076540;28;20240;-54
2022/04/05 06:27:47;;;;;;;0.40;0.40;;;;;;;;;;5077328;28;20205;-54
2022/04/05 06:30:15;;;;;;;0.40;0.40;;;;;;;;;;5064380;28;20206;-54
2022/04/05 06:32:43;;;;;;;0.55;0.55;;;;;;;;;;5077463;28;20201;-55
2022/04/05 06:35:12;;;;;;;0.52;0.52;;;;;;;;;;5066515;28;20193;-54
2022/04/05 06:37:43;;;;;;;0.50;0.50;;;;;;;;;;5058199;28;20239;-54
2022/04/05 06:40:10;;;;;;;0.40;0.40;;;;;;;;;;5069525;28;20737;-55
2022/04/05 06:42:42;;;;;;;0.50;0.50;;;;;;;;;;5058218;28;20215;-55
2022/04/05 06:45:11;;;;;;;0.50;0.50;;;;;;;;;;5069717;28;20201;-54
2022/04/05 06:47:38;;;;;;;0.50;0.50;;;;;;;;;;5057379;28;20197;-55
2022/04/05 06:50:07;;;;;;;0.52;0.50;;;;;;;;;;5076225;28;20480;-54
2022/04/05 06:52:35;;;;;;;0.60;0.60;;;;;;;;;;5076087;28;20212;-54
2022/04/05 06:55:03;;;;;;;0.50;0.50;;;;;;;;;;5076071;28;20196;-56
2022/04/05 06:57:31;;;;;;;0.50;0.50;;;;;;;;;;5075993;28;20208;-55
2022/04/05 06:59:58;;;;;;;0.50;0.50;;;;;;;;;;5055861;28;20193;-54
2022/04/05 07:02:26;;;;;;;0.50;0.50;;;;;;;;;;5055818;28;20261;-55
2022/04/05 07:04:54;;;;;;;0.50;0.50;;;;;;;;;;5063483;28;20486;-55
2022/04/05 07:07:22;;;;;;;0.60;0.60;;;;;;;;;;5074686;28;20505;-54
2022/04/05 07:09:50;;;;;;;0.47;0.47;;;;;;;;;;5056437;28;20201;-54
2022/04/05 07:12:18;;;;;;;0.40;0.40;;;;;;;;;;5056491;28;20197;-54
2022/04/05 07:14:46;;;;;;;0.50;0.50;;;;;;;;;;5065356;28;20204;-54
2022/04/05 07:17:13;;;;;;;0.60;0.60;;;;;;;;;;5075624;28;20223;-54
2022/04/05 07:19:40;;;;;;;0.50;0.50;;;;;;;;;;5057204;28;20224;-54
2022/04/05 07:22:08;;;;;;;0.60;0.43;;;;;;;;;;5055478;28;20605;-54
2022/04/05 07:24:35;;;;;;;0.50;0.50;;;;;;;;;;5057019;28;20292;-54
2022/04/05 07:27:04;;;;;;;0.40;0.40;;;;;;;;;;5065075;28;20615;-54
2022/04/05 07:29:32;;;;;;;0.40;0.40;;;;;;;;;;5054283;28;20201;-54
2022/04/05 07:32:00;;;;;;;0.45;0.45;;;;;;;;;;5072287;28;20196;-55
2022/04/05 07:34:27;;;;;;;0.38;0.38;;;;;;;;;;5075697;28;20204;-55
2022/04/05 07:36:55;;;;;;;0.40;0.40;;;;;;;;;;5075313;28;20208;-54
2022/04/05 07:39:23;;;;;;;0.45;0.45;;;;;;;;;;5074764;28;20212;-54
2022/04/05 07:41:51;;;;;;;0.45;0.45;;;;;;;;;;5065436;28;20504;-54
2022/04/05 07:44:19;;;;;;;0.45;0.45;;;;;;;;;;5067646;28;20211;-54
2022/04/05 07:46:47;;;;;;;0.63;0.50;;;;;;;;;;5063707;28;20852;-54
2022/04/05 07:49:14;;;;;;;0.50;0.50;;;;;;;;;;5055579;28;20650;-54
2022/04/05 07:51:42;;;;;;;0.40;0.40;;;;;;;;;;5055125;28;20204;-54
2022/04/05 07:54:10;;;;;;;3.63;2.15;;;;;;;;;;5055065;28;20232;-54
2022/04/05 07:56:38;;;;;;;4.00;3.70;;;;;;;;;;5055387;28;20209;-54
2022/04/05 07:59:05;;;;;;;3.83;3.45;;;;;;;;;;5062372;28;20216;-54
2022/04/05 08:01:34;;;;;;;2.97;2.78;;;;;;;;;;5058299;28;20200;-54
2022/04/05 08:04:01;;;;;;;2.95;2.75;;;;;;;;;;5058417;28;20752;-54
2022/04/05 08:06:29;;;;;;;2.78;2.58;;;;;;;;;;5074711;28;20303;-56
2022/04/05 08:08:57;;;;;;;5.28;4.88;;;;;;;;;;5074925;28;20201;-54
2022/04/05 08:11:24;;;;;;;7.82;7.13;;;;;;;;;;5074422;28;20215;-55
2022/04/05 08:13:52;;;;;;;6.40;5.80;;;;;;;;;;5074809;28;20231;-55
2022/04/05 08:16:20;;;;;;;5.93;5.47;;;;;;;;;;5074671;28;20315;-54
2022/04/05 08:18:48;;;;;;;5.53;5.00;;;;;;;;;;5074567;28;20478;-55
2022/04/05 08:21:19;;;;;;;4.65;4.35;;;;;;;;;;5069760;28;20303;-56
2022/04/05 08:23:48;;;;;;;4.65;4.35;;;;;;;;;;5065644;28;20258;-55
2022/04/05 08:26:16;;;;;;;4.25;3.85;;;;;;;;;;5073920;28;20196;-56
2022/04/05 08:28:43;;;;;;;3.90;3.60;;;;;;;;;;5068389;28;20258;-56
2022/04/05 08:31:11;;;;;;;3.97;3.67;;;;;;;;;;5055274;28;20232;-55
2022/04/05 08:33:40;;;;;;;3.10;2.90;;;;;;;;;;5063359;28;20205;-56
2022/04/05 08:36:09;;;;;;;3.30;3.08;;;;;;;;;;5059298;28;20231;-55
2022/04/05 08:38:36;;;;;;;3.03;2.83;;;;;;;;;;5066540;28;20517;-55
2022/04/05 08:41:05;;;;;;;3.40;2.88;;;;;;;;;;5061371;28;20199;-55
2022/04/05 08:43:33;;;;;;;3.03;2.83;;;;;;;;;;5074563;28;20211;-55
2022/04/05 08:46:01;;;;;;;2.45;2.25;;;;;;;;;;5054301;28;20208;-55
2022/04/05 08:48:29;;;;;;;2.53;2.30;;;;;;;;;;5060079;28;20203;-55
2022/04/05 08:50:57;;;;;;;2.78;2.30;;;;;;;;;;5073552;28;20200;-55
2022/04/05 08:53:28;;;;;;;2.15;2.05;;;;;;;;;;5067443;28;20213;-55
2022/04/05 08:55:55;;;;;;;1.85;1.75;;;;;;;;;;5072644;28;20599;-56
2022/04/05 08:58:23;;;;;;;1.98;1.77;;;;;;;;;;5073014;28;20719;-55
2022/04/05 09:00:53;;;;;;;1.65;1.55;;;;;;;;;;5064870;28;20201;-55
2022/04/05 09:03:20;;;;;;;1.80;1.70;;;;;;;;;;5053805;28;20201;-55
2022/04/05 09:05:48;;;;;;;1.63;1.52;;;;;;;;;;5053753;28;20205;-55
2022/04/05 09:08:17;;;;;;;1.67;1.58;;;;;;;;;;5057736;28;20192;-55
2022/04/05 09:10:47;;;;;;;1.77;1.42;;;;;;;;;;5064063;28;20655;-56
2022/04/05 09:13:17;;;;;;;1.83;1.40;;;;;;;;;;5054252;28;20212;-55
2022/04/05 09:15:45;;;;;;;1.58;1.48;;;;;;;;;;5053392;28;20208;-57
2022/04/05 09:18:12;;;;;;;1.50;1.40;;;;;;;;;;5054250;28;20203;-55
2022/04/05 09:20:46;;;;;;;2.17;1.52;;;;;;;;;;5059931;28;20204;-55
2022/04/05 09:23:24;;;;;;;2.10;1.30;;;;;;;;;;5073666;28;20214;-55
2022/04/05 09:26:00;;;;;;;1.30;1.20;;;;;;;;;;5071816;28;20239;-55
2022/04/05 09:28:29;;;;;;;1.65;1.30;;;;;;;;;;5061469;28;20216;-55
2022/04/05 09:30:58;;;;;;;1.20;1.10;;;;;;;;;;5073417;28;20208;-55
2022/04/05 09:33:26;;;;;;;1.70;1.33;;;;;;;;;;5073230;28;20208;-56
2022/04/05 09:36:02;;;;;;;3.95;1.60;;;;;;;;;;5054054;28;20201;-55
2022/04/05 09:38:30;;;;;;;1.60;1.23;;;;;;;;;;5058715;28;20293;-55
2022/04/05 09:41:10;;;;;;;1.90;1.33;;;;;;;;;;5067428;28;20201;-56
2022/04/05 09:43:37;;;;;;;1.35;1.23;;;;;;;;;;5053728;28;20215;-55
2022/04/05 09:46:05;;;;;;;5.10;1.30;;;;;;;;;;5052939;28;20620;-55
2022/04/05 09:48:35;;;;;;;3.00;1.00;;;;;;;;;;5058442;28;20202;-56
2022/04/05 09:51:05;;;;;;;2.25;1.10;;;;;;;;;;5065065;28;20719;-55
2022/04/05 09:53:43;;;;;;;1.75;1.08;;;;;;;;;;5077060;28;20216;-55
2022/04/05 09:56:14;;;;;;;1.10;1.00;;;;;;;;;;5077167;28;20207;-55
2022/04/05 09:58:46;;;;;;;1.92;0.98;;;;;;;;;;5073870;28;20291;-55
2022/04/05 10:01:13;;;;;;;17.77;15.95;;;;;;;;;;5068041;28;20204;-55
2022/04/05 10:03:41;;;;;;;29.00;25.85;;;;;;;;;;5076586;28;20509;-54
2022/04/05 10:06:08;;;;;;;44.72;40.13;;;;;;;;;;5058224;28;20196;-54
2022/04/05 10:08:37;;;;;;;60.63;54.53;;;;;;;;;;5057238;28;20205;-55
2022/04/05 10:11:05;;;;;;;49.85;44.80;;;;;;;;;;5056501;28;20729;-54
2022/04/05 10:13:34;;;;;;;44.78;40.22;;;;;;;;;;5056955;28;20477;-54
2022/04/05 10:16:02;;;;;;;39.88;35.97;;;;;;;;;;5056483;28;20211;-54
2022/04/05 10:18:36;;;;;;;40.25;36.25;;;;;;;;;;5073472;28;20621;-54
2022/04/05 10:21:04;;;;;;;36.47;32.97;;;;;;;;;;5076315;28;20715;-54
2022/04/05 10:23:32;;;;;;;34.38;30.98;;;;;;;;;;5075279;28;20204;-54
2022/04/05 10:26:00;;;;;;;34.88;31.58;;;;;;;;;;5074523;28;20532;-55
2022/04/05 10:28:29;;;;;;;31.90;28.75;;;;;;;;;;5072724;28;20545;-55
2022/04/05 10:31:09;;;;;;;31.02;28.13;;;;;;;;;;5066862;28;20710;-54
2022/04/05 10:33:41;;;;;;;28.20;25.33;;;;;;;;;;5056118;28;20212;-54
2022/04/05 10:36:09;;;;;;;26.02;23.42;;;;;;;;;;5055944;28;20211;-54
2022/04/05 10:38:37;;;;;;;24.27;21.88;;;;;;;;;;5056144;28;20201;-54
2022/04/05 10:41:14;;;;;;;23.20;21.00;;;;;;;;;;5059878;28;20200;-54
2022/04/05 10:43:42;;;;;;;22.17;19.98;;;;;;;;;;5055623;28;20916;-55
2022/04/05 10:46:12;;;;;;;21.20;19.10;;;;;;;;;;5075599;28;20200;-55
2022/04/05 10:48:55;;;;;;;20.58;18.58;;;;;;;;;;5068943;28;20322;-55
2022/04/05 10:51:31;;;;;;;19.35;17.45;;;;;;;;;;5058868;28;20201;-54
2022/04/05 10:54:19;;;;;;;18.40;16.70;;;;;;;;;;5075311;28;20196;-54
2022/04/05 10:57:05;;;;;;;17.52;15.85;;;;;;;;;;5076030;28;20603;-55
2022/04/05 10:59:47;;;;;;;16.60;15.00;;;;;;;;;;5075601;28;20224;-56
2022/04/05 11:02:29;;;;;;;15.90;14.35;;;;;;;;;;5075529;28;20665;-54
2022/04/05 11:05:03;;;;;;;14.23;12.93;;;;;;;;;;5074973;28;20214;-55
2022/04/05 11:07:31;;;;;;;14.55;13.05;;;;;;;;;;5074302;28;20210;-55
2022/04/05 11:10:00;;;;;;;14.10;12.70;;;;;;;;;;5069000;28;20207;-55
2022/04/05 11:12:30;;;;;;;12.70;11.50;;;;;;;;;;5056460;28;20197;-55
2022/04/05 11:14:58;;;;;;;12.68;11.48;;;;;;;;;;5055447;28;20254;-55
2022/04/05 11:17:26;;;;;;;11.90;10.70;;;;;;;;;;5056338;28;20231;-56
2022/04/05 11:19:55;;;;;;;10.65;9.65;;;;;;;;;;5064916;28;20534;-55
2022/04/05 11:22:37;;;;;;;10.73;9.80;;;;;;;;;;5069525;28;20211;-55
2022/04/05 11:25:06;;;;;;;10.75;9.73;;;;;;;;;;5070381;28;20220;-56
2022/04/05 11:27:35;;;;;;;9.93;8.98;;;;;;;;;;5065845;28;20219;-55
2022/04/05 11:30:21;;;;;;;9.45;8.55;;;;;;;;;;5060589;28;20192;-55
2022/04/05 11:33:08;;;;;;;9.02;8.23;;;;;;;;;;5074051;28;20204;-54
2022/04/05 11:35:36;;;;;;;8.18;7.45;;;;;;;;;;5074288;28;20215;-55
2022/04/05 11:38:06;;;;;;;7.45;6.85;;;;;;;;;;5067434;28;20200;-54
2022/04/05 11:40:33;;;;;;;7.40;6.70;;;;;;;;;;5059138;28;20231;-56
2022/04/05 11:43:03;;;;;;;6.90;6.30;;;;;;;;;;5074459;28;20196;-55
2022/04/05 11:45:30;;;;;;;6.80;6.20;;;;;;;;;;5071196;28;20204;-56
2022/04/05 11:47:58;;;;;;;6.55;5.95;;;;;;;;;;5069707;28;20699;-56
2022/04/05 11:50:25;;;;;;;5.95;5.45;;;;;;;;;;5073876;28;20196;-55
2022/04/05 11:52:53;;;;;;;7.05;6.38;;;;;;;;;;5069121;28;20723;-55
2022/04/05 11:58:07;;;;;;;10.75;5.93;;;;;;;;;;5056683;28;20196;-55
2022/04/05 12:00:35;;;;;;;6.10;5.50;;;;;;;;;;5063397;28;20514;-55
2022/04/05 12:03:03;;;;;;;5.47;4.97;;;;;;;;;;5053055;28;20759;-55
2022/04/05 12:05:41;;;;;;;5.47;4.97;;;;;;;;;;5070554;28;20196;-55
2022/04/05 12:08:10;;;;;;;5.25;4.75;;;;;;;;;;5072939;28;20204;-55
2022/04/05 12:10:40;;;;;;;4.82;4.40;;;;;;;;;;5072323;28;20222;-55
2022/04/05 12:13:07;;;;;;;4.45;4.05;;;;;;;;;;5072694;28;20206;-55
2022/04/05 12:15:36;;;;;;;4.55;4.15;;;;;;;;;;5063796;28;20231;-55
2022/04/05 12:18:18;;;;;;;4.28;3.88;;;;;;;;;;5052997;28;20205;-55
2022/04/05 12:20:55;;;;;;;3.90;3.60;;;;;;;;;;5062941;28;20224;-55
2022/04/05 12:23:28;;;;;;;4.15;3.75;;;;;;;;;;5073638;28;20704;-55
2022/04/05 12:26:23;;;;;;;3.92;3.40;;;;;;;;;;5070868;28;20228;-55
2022/04/05 12:29:15;;;;;;;3.50;3.20;;;;;;;;;;5073815;28;20208;-55
2022/04/05 12:32:08;;;;;;;3.30;3.00;;;;;;;;;;5071959;28;20246;-56
2022/04/05 12:35:00;;;;;;;3.08;2.78;;;;;;;;;;5066654;28;20270;-55
2022/04/05 12:37:53;;;;;;;3.20;2.80;;;;;;;;;;5057164;28;20193;-55
2022/04/05 12:40:45;;;;;;;2.80;2.47;;;;;;;;;;5063089;28;20239;-55
2022/04/05 12:43:37;;;;;;;2.70;2.50;;;;;;;;;;5072829;28;20222;-55
2022/04/05 12:46:30;;;;;;;2.50;2.30;;;;;;;;;;5066745;28;20190;-55
2022/04/05 12:49:23;;;;;;;2.53;2.33;;;;;;;;;;5053563;28;20728;-54
2022/04/05 12:52:15;;;;;;;2.50;2.30;;;;;;;;;;5072108;28;20196;-55
2022/04/05 12:55:08;;;;;;;1.90;1.80;;;;;;;;;;5071909;28;20326;-55
2022/04/05 12:58:01;;;;;;;2.33;2.13;;;;;;;;;;5072401;28;20196;-55
2022/04/05 13:00:52;;;;;;;2.35;2.15;;;;;;;;;;5072626;28;20253;-55
2022/04/05 13:03:45;;;;;;;1.88;1.77;;;;;;;;;;5054229;28;20211;-55
2022/04/05 13:06:38;;;;;;;1.88;1.73;;;;;;;;;;5073422;28;20204;-55
2022/04/05 13:09:30;;;;;;;2.50;2.00;;;;;;;;;;5065764;28;20201;-55
2022/04/05 13:12:25;;;;;;;1.95;1.80;;;;;;;;;;5070351;28;20203;-55
2022/04/05 13:37:35;;;;;;;1.38;1.27;;;;;;;;;;5037663;28;20220;-58
2022/04/05 13:40:07;;;;;;;1.58;1.35;;;;;;;;;;5034834;28;20651;-56
2022/04/05 13:46:04;;;;;;;2.53;1.10;;;;;;;;;;5038829;28;20185;-57
2022/04/05 13:54:56;;;;;;;1.10;1.00;;;;;;;;;;5019904;28;20181;-56
2022/04/05 14:12:31;;;;;;;0.95;0.90;;;;;;;;;;5057119;22;20322;-56
2022/04/05 14:14:58;;;;;;;0.90;0.82;;;;;;;;;;5055056;28;20205;-57
2022/04/05 14:17:25;;;;;;;1.02;0.80;;;;;;;;;;5023576;28;20210;-57
2022/04/05 14:19:53;;;;;;;1.15;1.05;;;;;;;;;;5027383;28;20217;-57
2022/04/05 14:22:20;;;;;;;1.00;0.88;;;;;;;;;;5039418;28;20207;-57
2022/04/05 14:24:48;;;;;;;0.95;0.70;;;;;;;;;;5054340;28;20267;-57
2022/04/05 14:27:15;;;;;;;0.90;0.90;;;;;;;;;;5055787;28;20201;-57
2022/04/05 14:29:44;;;;;;;0.85;0.85;;;;;;;;;;5055320;28;20473;-57
2022/04/05 14:32:12;;;;;;;0.80;0.80;;;;;;;;;;5052271;28;20197;-57
2022/04/05 14:34:40;;;;;;;0.80;0.80;;;;;;;;;;5035263;28;20205;-57
2022/04/05 14:37:07;;;;;;;0.70;0.70;;;;;;;;;;5035431;28;20260;-57
2022/04/05 14:39:35;;;;;;;0.63;0.63;;;;;;;;;;5040533;28;20212;-57
2022/04/05 14:42:02;;;;;;;0.90;0.90;;;;;;;;;;5053021;28;20197;-57
2022/04/05 14:44:31;;;;;;;0.90;0.90;;;;;;;;;;5041372;28;20207;-57
2022/04/05 14:47:00;;;;;;;1.00;0.90;;;;;;;;;;5044612;28;20202;-57
2022/04/05 14:49:28;;;;;;;0.90;0.90;;;;;;;;;;5034927;28;20202;-57
2022/04/05 14:51:55;;;;;;;0.80;0.80;;;;;;;;;;5016023;28;20217;-56
2022/04/05 14:54:23;;;;;;;1.38;0.77;;;;;;;;;;5047303;28;20208;-57
2022/04/05 14:56:52;;;;;;;0.88;0.88;;;;;;;;;;5035409;28;20582;-57
2022/04/05 14:59:19;;;;;;;0.82;0.82;;;;;;;;;;5041465;28;20215;-57
2022/04/05 15:01:46;;;;;;;1.15;0.80;;;;;;;;;;5053723;28;20217;-58
2022/04/05 15:04:15;;;;;;;0.80;0.80;;;;;;;;;;5054007;28;20204;-57
2022/04/05 15:06:43;;;;;;;0.70;0.70;;;;;;;;;;5051271;28;20212;-57
2022/04/05 15:09:10;;;;;;;1.00;0.90;;;;;;;;;;5026809;28;20466;-57
2022/04/05 15:11:37;;;;;;;0.82;0.80;;;;;;;;;;5054167;28;20233;-57
2022/04/05 15:14:05;;;;;;;0.80;0.80;;;;;;;;;;5035795;28;20485;-57
2022/04/05 15:16:32;;;;;;;0.65;0.65;;;;;;;;;;5033585;28;20654;-57
2022/04/05 15:19:01;;;;;;;0.60;0.60;;;;;;;;;;5043287;28;20263;-57
2022/04/05 15:21:30;;;;;;;0.80;0.80;;;;;;;;;;5035403;28;20236;-57
2022/04/05 15:23:57;;;;;;;0.80;0.75;;;;;;;;;;5044648;28;20210;-58
2022/04/05 15:26:25;;;;;;;0.70;0.70;;;;;;;;;;5055501;28;20205;-57
2022/04/05 15:28:53;;;;;;;1.30;0.90;;;;;;;;;;5055052;28;20216;-57
2022/04/05 15:31:21;;;;;;;0.80;0.60;;;;;;;;;;5055700;28;20286;-57
2022/04/05 15:33:48;;;;;;;1.30;0.88;;;;;;;;;;5040515;28;20205;-57
2022/04/05 15:36:15;;;;;;;0.60;0.60;;;;;;;;;;5034958;28;20201;-57
2022/04/05 15:38:44;;;;;;;1.17;0.68;;;;;;;;;;5035823;28;20239;-57
2022/04/05 15:41:12;;;;;;;0.93;0.77;;;;;;;;;;5035637;28;20240;-57
2022/04/05 15:43:39;;;;;;;0.60;0.60;;;;;;;;;;5049337;28;20211;-57
2022/04/05 15:46:07;;;;;;;0.82;0.80;;;;;;;;;;5037080;28;20369;-57
2022/04/05 15:48:34;;;;;;;0.70;0.70;;;;;;;;;;5038631;28;20208;-58
2022/04/05 15:51:02;;;;;;;0.80;0.80;;;;;;;;;;5053826;28;20208;-57
2022/04/05 15:53:29;;;;;;;0.77;0.77;;;;;;;;;;5041423;28;20213;-57
2022/04/05 15:55:58;;;;;;;0.80;0.80;;;;;;;;;;5034897;28;20219;-57
2022/04/05 15:58:26;;;;;;;0.85;0.85;;;;;;;;;;5034361;28;20214;-57
2022/04/05 16:00:53;;;;;;;1.05;0.70;;;;;;;;;;5047205;28;20497;-57
2022/04/05 16:03:20;;;;;;;1.17;0.50;;;;;;;;;;5034609;28;20206;-57
2022/04/05 16:05:48;;;;;;;0.60;0.60;;;;;;;;;;5045500;28;20591;-57
2022/04/05 16:08:16;;;;;;;0.77;0.77;;;;;;;;;;5054125;28;20569;-57
2022/04/05 16:10:44;;;;;;;0.75;0.75;;;;;;;;;;5053834;28;20207;-57